Time;durP1;ratioP1;P1;durP2;ratioP2;P2;SDS_P1;SDS_P2;PMS_P1;PMS_P2;Temp;Humidity;BMP_temperature;BMP_pressure;BME280_temperature;BME280_humidity;BME280_pressure;Samples;Min_cycle;Max_cycle;Signal;HPM_P1;HPM_P2
2022/03/25 00:01:58;;;;;;;62.37;37.33;;;7.00;44.80;;;;;;2607588;54;20500;-74
2022/03/25 00:04:24;;;;;;;63.67;38.93;;;6.90;44.90;;;;;;2608101;54;20164;-76
2022/03/25 00:06:50;;;;;;;51.60;35.30;;;6.70;51.90;;;;;;2610098;54;20406;-75
2022/03/25 00:09:15;;;;;;;60.00;35.70;;;6.70;53.90;;;;;;2608209;47;20546;-75
2022/03/25 00:11:41;;;;;;;69.80;37.67;;;6.90;52.50;;;;;;2606107;47;20908;-74
2022/03/25 00:14:07;;;;;;;56.10;34.80;;;7.00;50.10;;;;;;2607743;54;20145;-76
2022/03/25 00:16:33;;;;;;;56.37;35.70;;;6.90;49.60;;;;;;2607198;54;20547;-75
2022/03/25 00:18:59;;;;;;;61.47;37.67;;;6.90;49.70;;;;;;2609021;39;20589;-75
2022/03/25 00:21:25;;;;;;;60.43;38.23;;;6.90;50.30;;;;;;2608391;47;20256;-75
2022/03/25 00:23:50;;;;;;;60.60;38.43;;;8.50;51.90;;;;;;2605318;39;21548;-75
2022/03/25 00:26:16;;;;;;;65.30;40.40;;;6.90;50.70;;;;;;2607739;39;20841;-75
2022/03/25 00:28:42;;;;;;;55.30;36.50;;;6.90;49.70;;;;;;2608558;47;20261;-76
2022/03/25 00:31:08;;;;;;;60.50;38.93;;;6.80;50.40;;;;;;2608538;47;20179;-76
2022/03/25 00:33:36;;;;;;;55.37;37.33;;;6.80;51.00;;;;;;2607840;39;20630;-76
2022/03/25 00:36:03;;;;;;;52.53;37.20;;;6.80;51.40;;;;;;2607849;39;20738;-75
2022/03/25 00:38:30;;;;;;;56.47;35.53;;;6.80;51.40;;;;;;2608269;39;20806;-76
2022/03/25 00:40:56;;;;;;;64.00;39.40;;;6.70;52.40;;;;;;2607951;47;20416;-76
2022/03/25 00:43:24;;;;;;;59.10;37.40;;;6.60;53.00;;;;;;2607614;39;20825;-74
2022/03/25 00:45:51;;;;;;;53.77;37.00;;;6.50;55.70;;;;;;2606931;54;20417;-75
2022/03/25 00:48:17;;;;;;;60.07;37.93;;;6.40;56.80;;;;;;2611292;54;20424;-75
2022/03/25 00:50:43;;;;;;;56.47;37.80;;;6.30;58.30;;;;;;2612569;39;20885;-75
2022/03/25 00:53:11;;;;;;;61.67;38.53;;;6.10;66.70;;;;;;2610010;54;20293;-75
2022/03/25 00:55:38;;;;;;;55.00;37.30;;;6.20;66.20;;;;;;2607295;54;20418;-75
2022/03/25 00:58:04;;;;;;;62.93;38.10;;;6.30;64.40;;;;;;2607921;54;20163;-74
2022/03/25 01:00:30;;;;;;;57.50;37.30;;;6.30;65.10;;;;;;2608624;47;20430;-74
2022/03/25 01:02:56;;;;;;;61.43;39.17;;;6.30;66.00;;;;;;2610121;54;20429;-73
2022/03/25 01:05:22;;;;;;;61.53;37.70;;;6.30;84.20;;;;;;2610943;54;20431;-77
2022/03/25 01:07:48;;;;;;;58.83;37.80;;;6.10;73.30;;;;;;2612300;54;20444;-77
2022/03/25 01:10:14;;;;;;;56.83;35.37;;;6.10;74.60;;;;;;2608732;54;20395;-75
2022/03/25 01:12:40;;;;;;;58.77;38.40;;;6.10;76.70;;;;;;2610301;54;20177;-75
2022/03/25 01:15:07;;;;;;;60.03;35.77;;;6.00;77.50;;;;;;2609517;54;20451;-76
2022/03/25 01:17:33;;;;;;;51.70;35.90;;;6.00;79.10;;;;;;2609120;47;20444;-76
2022/03/25 01:19:59;;;;;;;54.30;35.87;;;6.00;82.50;;;;;;2606848;54;20431;-75
2022/03/25 01:22:24;;;;;;;61.73;37.27;;;6.00;85.10;;;;;;2609353;39;20559;-76
2022/03/25 01:24:50;;;;;;;59.93;37.83;;;5.90;89.30;;;;;;2608515;54;20190;-75
2022/03/25 01:27:17;;;;;;;61.20;36.40;;;5.90;90.30;;;;;;2609238;39;20655;-75
2022/03/25 01:29:43;;;;;;;59.73;35.60;;;5.90;90.20;;;;;;2607646;54;20196;-75
2022/03/25 01:32:10;;;;;;;56.57;37.53;;;5.90;90.70;;;;;;2606600;39;20925;-75
2022/03/25 01:34:37;;;;;;;59.00;37.20;;;5.90;91.20;;;;;;2605693;46;20438;-75
2022/03/25 01:37:03;;;;;;;64.10;38.77;;;6.50;92.90;;;;;;2606855;47;20544;-76
2022/03/25 01:39:29;;;;;;;52.10;34.10;;;5.70;95.00;;;;;;2608496;51;21009;-75
2022/03/25 01:41:55;;;;;;;61.17;38.00;;;5.70;93.20;;;;;;2609921;54;20522;-75
2022/03/25 01:44:29;;;;;;;51.43;33.37;;;5.70;93.90;;;;;;2611873;54;20415;-76
2022/03/25 01:46:56;;;;;;;59.77;37.27;;;5.40;97.70;;;;;;2611704;54;20409;-76
2022/03/25 01:49:22;;;;;;;54.63;36.30;;;5.50;99.30;;;;;;2608328;39;20798;-76
2022/03/25 01:52:00;;;;;;;57.90;38.33;;;5.50;99.40;;;;;;2609732;54;20423;-76
2022/03/25 01:54:29;;;;;;;61.60;37.77;;;5.40;99.90;;;;;;2608576;50;20702;-74
2022/03/25 01:57:00;;;;;;;61.00;38.33;;;5.40;99.90;;;;;;2608512;54;20524;-75
2022/03/25 01:59:28;;;;;;;52.17;34.37;;;5.40;99.90;;;;;;2609545;47;20423;-75
2022/03/25 02:01:54;;;;;;;56.50;34.90;;;5.50;99.90;;;;;;2612028;54;20436;-75
2022/03/25 02:04:21;;;;;;;53.47;36.17;;;5.50;99.90;;;;;;2610132;54;20554;-76
2022/03/25 02:06:49;;;;;;;56.50;36.67;;;5.50;99.90;;;;;;2609236;54;20385;-76
2022/03/25 02:09:15;;;;;;;57.40;35.10;;;5.50;99.90;;;;;;2610544;47;20452;-76
2022/03/25 02:11:42;;;;;;;57.77;38.83;;;5.40;99.90;;;;;;2612656;54;20522;-75
2022/03/25 02:14:11;;;;;;;71.23;38.83;;;5.20;99.90;;;;;;2612616;51;20408;-74
2022/03/25 02:16:48;;;;;;;59.53;37.87;;;5.20;99.90;;;;;;2612260;54;20484;-75
2022/03/25 02:19:18;;;;;;;58.00;37.57;;;5.10;99.90;;;;;;2612622;47;20563;-75
2022/03/25 02:21:49;;;;;;;61.90;37.03;;;5.30;99.90;;;;;;2611171;39;20796;-75
2022/03/25 02:24:17;;;;;;;70.03;38.43;;;5.30;99.90;;;;;;2609259;54;20418;-76
2022/03/25 02:26:47;;;;;;;59.40;37.43;;;5.20;99.90;;;;;;2610224;54;20407;-76
2022/03/25 02:29:17;;;;;;;64.80;37.33;;;5.10;99.90;;;;;;2608854;46;20872;-75
2022/03/25 02:31:43;;;;;;;63.83;38.07;;;5.00;99.90;;;;;;2609588;54;21006;-76
2022/03/25 02:34:09;;;;;;;53.77;36.53;;;5.00;99.90;;;;;;2608690;54;20432;-76
2022/03/25 02:36:43;;;;;;;51.20;36.10;;;5.10;99.90;;;;;;2608336;39;20799;-77
2022/03/25 02:39:11;;;;;;;60.57;36.87;;;4.80;99.90;;;;;;2609100;46;20431;-76
2022/03/25 02:41:37;;;;;;;64.80;39.40;;;4.70;99.90;;;;;;2608814;54;20435;-76
2022/03/25 02:44:04;;;;;;;58.60;37.60;;;5.00;99.90;;;;;;2607822;54;21059;-76
2022/03/25 02:46:31;;;;;;;71.47;37.77;;;5.00;99.90;;;;;;2610280;46;20187;-75
2022/03/25 02:48:56;;;;;;;60.80;38.03;;;5.10;99.90;;;;;;2611388;54;20413;-76
2022/03/25 02:51:22;;;;;;;51.67;34.17;;;5.00;99.90;;;;;;2611383;54;20429;-78
2022/03/25 02:53:48;;;;;;;51.17;33.20;;;5.00;99.90;;;;;;2608149;54;20678;-76
2022/03/25 02:56:14;;;;;;;51.70;35.17;;;5.10;99.90;;;;;;2608715;54;20158;-75
2022/03/25 02:58:40;;;;;;;56.90;35.93;;;;;;;;;;2608422;54;20191;-75
2022/03/25 03:01:06;;;;;;;63.57;37.80;;;5.10;99.90;;;;;;2609489;46;20858;-74
2022/03/25 03:03:33;;;;;;;59.67;36.00;;;4.80;99.90;;;;;;2609465;54;20438;-75
2022/03/25 03:05:59;;;;;;;62.00;37.37;;;4.90;99.90;;;;;;2608543;47;20429;-76
2022/03/25 03:08:25;;;;;;;65.23;37.30;;;4.90;99.90;;;;;;2609757;54;20444;-75
2022/03/25 03:10:51;;;;;;;58.20;35.03;;;5.00;99.90;;;;;;2610113;54;20951;-76
2022/03/25 03:13:18;;;;;;;59.27;36.57;;;5.10;99.90;;;;;;2609211;39;20807;-77
2022/03/25 03:15:45;;;;;;;56.97;38.40;;;4.90;99.90;;;;;;2608519;54;20457;-75
2022/03/25 03:18:11;;;;;;;62.27;38.63;;;5.00;99.90;;;;;;2609091;54;20954;-75
2022/03/25 03:20:37;;;;;;;63.80;38.80;;;4.90;99.90;;;;;;2610283;54;20395;-76
2022/03/25 03:23:02;;;;;;;59.83;35.63;;;4.80;99.90;;;;;;2609960;54;20246;-76
2022/03/25 03:25:28;;;;;;;57.73;36.90;;;4.80;99.90;;;;;;2606987;54;21207;-75
2022/03/25 03:27:54;;;;;;;61.60;35.63;;;4.80;99.90;;;;;;2607354;54;20184;-75
2022/03/25 03:30:20;;;;;;;57.80;37.67;;;4.80;99.90;;;;;;2608625;54;20182;-75
2022/03/25 03:32:46;;;;;;;62.43;37.70;;;4.80;99.90;;;;;;2610017;54;21098;-75
2022/03/25 03:35:14;;;;;;;54.50;36.93;;;4.80;99.90;;;;;;2605960;51;20490;-75
2022/03/25 03:37:41;;;;;;;63.73;37.97;;;4.60;99.90;;;;;;2606996;54;20209;-76
2022/03/25 03:40:09;;;;;;;58.63;37.47;;;4.70;99.90;;;;;;2608061;39;20822;-76
2022/03/25 03:42:37;;;;;;;68.60;38.07;;;4.70;99.90;;;;;;2605320;39;21056;-76
2022/03/25 03:45:04;;;;;;;63.17;37.20;;;4.70;99.90;;;;;;2607228;54;20442;-76
2022/03/25 03:47:29;;;;;;;53.30;36.80;;;4.60;99.90;;;;;;2605817;54;22498;-75
2022/03/25 03:49:55;;;;;;;64.43;35.73;;;4.40;99.90;;;;;;2607786;47;20412;-76
2022/03/25 03:52:23;;;;;;;65.53;39.50;;;4.50;99.90;;;;;;2608405;54;20147;-76
2022/03/25 03:54:49;;;;;;;54.13;36.23;;;4.50;99.90;;;;;;2605730;39;21112;-75
2022/03/25 03:57:38;;;;;;;56.70;37.70;;;4.50;99.90;;;;;;2606852;54;20410;-75
2022/03/25 04:00:06;;;;;;;60.93;36.27;;;4.50;99.90;;;;;;2606275;54;20415;-75
2022/03/25 04:02:39;;;;;;;73.37;39.20;;;4.60;99.90;;;;;;2607570;39;21888;-75
2022/03/25 04:05:06;;;;;;;58.23;38.60;;;4.40;99.90;;;;;;2607000;39;20873;-76
2022/03/25 04:07:32;;;;;;;62.93;38.60;;;4.30;99.90;;;;;;2605356;54;20382;-75
2022/03/25 04:09:58;;;;;;;71.07;38.50;;;4.40;99.90;;;;;;2609304;54;20413;-75
2022/03/25 04:12:24;;;;;;;68.10;38.80;;;4.40;99.90;;;;;;2605551;54;20456;-75
2022/03/25 04:14:49;;;;;;;66.70;37.43;;;4.30;99.90;;;;;;2605806;47;20985;-75
2022/03/25 04:17:16;;;;;;;71.07;41.63;;;4.20;99.90;;;;;;2607038;54;20147;-75
2022/03/25 04:19:42;;;;;;;64.43;38.97;;;4.20;99.90;;;;;;2605732;54;20186;-75
2022/03/25 04:22:08;;;;;;;60.20;38.10;;;4.40;99.90;;;;;;2607008;47;20413;-76
2022/03/25 04:24:33;;;;;;;67.90;40.83;;;4.40;99.90;;;;;;2608779;54;20391;-75
2022/03/25 04:26:59;;;;;;;69.50;40.67;;;4.40;99.90;;;;;;2608931;54;20156;-75
2022/03/25 04:29:25;;;;;;;58.27;39.30;;;4.30;99.90;;;;;;2605313;54;20203;-76
2022/03/25 04:31:51;;;;;;;62.10;37.40;;;4.30;99.90;;;;;;2605917;54;20155;-74
2022/03/25 04:34:17;;;;;;;65.33;39.30;;;4.20;99.90;;;;;;2606082;54;21831;-76
2022/03/25 04:36:43;;;;;;;66.03;38.70;;;4.20;99.90;;;;;;2607507;46;20197;-75
2022/03/25 04:39:10;;;;;;;67.40;37.43;;;4.20;99.90;;;;;;2605835;54;20257;-75
2022/03/25 04:41:35;;;;;;;55.33;36.50;;;4.20;99.90;;;;;;2606932;54;20432;-75
2022/03/25 04:44:01;;;;;;;54.50;35.70;;;4.20;99.90;;;;;;2609814;54;20544;-75
2022/03/25 04:46:27;;;;;;;65.07;38.43;;;4.20;99.90;;;;;;2608936;47;20171;-75
2022/03/25 04:48:53;;;;;;;61.03;36.93;;;4.20;99.90;;;;;;2608403;47;20639;-75
2022/03/25 04:51:18;;;;;;;58.90;37.03;;;4.10;99.90;;;;;;2609962;54;20994;-76
2022/03/25 04:53:44;;;;;;;62.70;36.33;;;4.10;99.90;;;;;;2608482;54;20153;-75
2022/03/25 04:56:10;;;;;;;62.70;36.77;;;4.10;99.90;;;;;;2609633;54;20222;-76
2022/03/25 04:58:36;;;;;;;64.87;39.00;;;4.00;99.90;;;;;;2610060;47;20400;-75
2022/03/25 05:01:02;;;;;;;60.80;37.30;;;4.00;99.90;;;;;;2609062;54;20658;-76
2022/03/25 05:03:28;;;;;;;58.33;38.80;;;4.10;99.90;;;;;;2608752;39;20584;-76
2022/03/25 05:05:53;;;;;;;68.47;38.50;;;4.10;99.90;;;;;;2609967;54;21013;-74
2022/03/25 05:08:19;;;;;;;74.23;38.73;;;4.00;99.90;;;;;;2610937;54;20417;-75
2022/03/25 05:10:45;;;;;;;62.97;36.67;;;4.10;99.90;;;;;;2608345;54;20298;-76
2022/03/25 05:13:12;;;;;;;58.43;37.80;;;4.10;99.90;;;;;;2608807;39;20575;-75
2022/03/25 05:15:38;;;;;;;57.60;37.47;;;4.10;99.90;;;;;;2609058;54;20395;-75
2022/03/25 05:18:04;;;;;;;60.23;36.50;;;4.20;99.90;;;;;;2608097;51;20943;-76
2022/03/25 05:20:30;;;;;;;65.67;37.90;;;4.00;99.90;;;;;;2609881;54;20142;-75
2022/03/25 05:22:56;;;;;;;72.57;39.63;;;4.00;99.90;;;;;;2609719;47;20182;-75
2022/03/25 05:25:22;;;;;;;59.03;38.30;;;4.10;99.90;;;;;;2609891;54;20510;-75
2022/03/25 05:27:58;;;;;;;69.10;38.63;;;4.00;99.90;;;;;;2609130;54;20170;-76
2022/03/25 05:30:30;;;;;;;57.20;37.70;;;4.00;99.90;;;;;;2608585;54;20411;-76
2022/03/25 05:32:56;;;;;;;63.37;38.50;;;4.00;99.90;;;;;;2609259;54;20500;-74
2022/03/25 05:35:23;;;;;;;69.10;41.10;;;4.00;99.90;;;;;;2609089;47;20412;-77
2022/03/25 05:37:50;;;;;;;69.57;38.73;;;4.00;99.90;;;;;;2609819;54;20474;-75
2022/03/25 05:40:17;;;;;;;59.73;39.97;;;4.00;99.90;;;;;;2609783;54;20458;-75
2022/03/25 05:42:43;;;;;;;71.90;44.00;;;3.90;99.90;;;;;;2609275;54;20982;-76
2022/03/25 05:45:10;;;;;;;68.67;42.40;;;4.00;99.90;;;;;;2611954;54;20396;-75
2022/03/25 05:47:37;;;;;;;69.20;42.67;;;4.10;99.90;;;;;;2609833;54;20387;-75
2022/03/25 05:50:05;;;;;;;68.17;42.33;;;4.00;99.90;;;;;;2607818;54;20565;-76
2022/03/25 05:52:31;;;;;;;60.90;39.07;;;4.00;99.90;;;;;;2607412;54;20524;-74
2022/03/25 05:54:56;;;;;;;75.93;42.57;;;4.10;99.90;;;;;;2609549;47;20423;-75
2022/03/25 05:57:22;;;;;;;68.83;41.10;;;4.20;99.90;;;;;;2610118;46;20190;-76
2022/03/25 05:59:48;;;;;;;66.30;40.43;;;4.30;99.90;;;;;;2606723;54;20154;-75
2022/03/25 06:02:14;;;;;;;66.77;43.30;;;4.20;99.90;;;;;;2608120;39;20587;-76
2022/03/25 06:04:41;;;;;;;67.40;42.23;;;4.50;99.90;;;;;;2607445;47;20420;-75
2022/03/25 06:07:07;;;;;;;63.97;40.10;;;4.60;99.90;;;;;;2606917;54;20156;-75
2022/03/25 06:09:33;;;;;;;64.03;42.00;;;4.50;99.90;;;;;;2608295;54;20490;-76
2022/03/25 06:11:59;;;;;;;63.73;40.73;;;4.80;99.90;;;;;;2606969;54;20409;-75
2022/03/25 06:14:26;;;;;;;58.93;40.10;;;4.90;99.90;;;;;;2610650;54;20152;-76
2022/03/25 06:16:52;;;;;;;82.17;45.10;;;4.90;99.90;;;;;;2609337;47;20471;-76
2022/03/25 06:19:18;;;;;;;56.60;40.97;;;4.90;99.90;;;;;;2607892;54;20403;-76
2022/03/25 06:21:44;;;;;;;65.30;41.90;;;5.20;99.90;;;;;;2606364;51;20430;-76
2022/03/25 06:24:11;;;;;;;58.23;41.00;;;5.30;99.90;;;;;;2607972;54;20420;-76
2022/03/25 06:26:37;;;;;;;65.80;42.17;;;5.30;99.90;;;;;;2606904;54;20441;-75
2022/03/25 06:29:03;;;;;;;56.27;38.77;;;5.60;99.90;;;;;;2607415;47;20434;-75
2022/03/25 06:31:29;;;;;;;62.07;40.03;;;5.90;99.90;;;;;;2610215;54;20408;-75
2022/03/25 06:33:56;;;;;;;60.63;42.57;;;6.20;99.90;;;;;;2609265;54;20409;-76
2022/03/25 06:36:22;;;;;;;63.70;38.47;;;6.60;99.90;;;;;;2609452;39;20842;-76
2022/03/25 06:38:48;;;;;;;57.63;38.40;;;7.00;99.90;;;;;;2608143;39;20948;-75
2022/03/25 06:41:14;;;;;;;62.03;39.83;;;7.10;97.40;;;;;;2605589;54;21187;-75
2022/03/25 06:43:40;;;;;;;65.97;42.50;;;7.50;93.40;;;;;;2605315;54;20421;-75
2022/03/25 06:46:06;;;;;;;60.43;40.80;;;7.90;84.80;;;;;;2607881;39;21341;-74
2022/03/25 06:48:33;;;;;;;55.40;39.07;;;8.00;79.30;;;;;;2608357;54;20419;-75
2022/03/25 06:51:00;;;;;;;66.00;41.73;;;8.30;74.70;;;;;;2611308;54;20410;-75
2022/03/25 06:53:27;;;;;;;63.53;44.07;;;8.70;65.90;;;;;;2607908;54;20408;-74
2022/03/25 06:55:53;;;;;;;63.53;39.40;;;8.90;58.00;;;;;;2608973;54;20427;-75
2022/03/25 06:58:20;;;;;;;63.53;40.97;;;9.30;52.70;;;;;;2609024;54;20452;-75
2022/03/25 07:00:46;;;;;;;55.33;40.90;;;9.70;47.20;;;;;;2607028;54;20416;-73
2022/03/25 07:03:13;;;;;;;58.60;42.00;;;10.00;38.40;;;;;;2608647;47;20799;-74
2022/03/25 07:05:40;;;;;;;57.30;41.67;;;10.20;35.20;;;;;;2610211;54;20411;-76
2022/03/25 07:08:06;;;;;;;58.70;39.70;;;10.70;31.30;;;;;;2610199;54;20501;-74
2022/03/25 07:10:33;;;;;;;60.87;42.07;;;11.00;25.40;;;;;;2610355;54;20519;-75
2022/03/25 07:12:59;;;;;;;53.53;40.10;;;10.90;21.50;;;;;;2611325;39;20812;-76
2022/03/25 07:15:25;;;;;;;56.17;41.77;;;10.90;20.50;;;;;;2606292;54;20527;-75
2022/03/25 07:17:54;;;;;;;60.23;45.43;;;11.10;18.90;;;;;;2608934;47;20939;-74
2022/03/25 07:20:22;;;;;;;64.60;43.33;;;11.50;16.50;;;;;;2606921;54;20527;-74
2022/03/25 07:22:51;;;;;;;59.73;43.03;;;12.00;14.30;;;;;;2608288;54;20446;-75
2022/03/25 07:25:19;;;;;;;57.57;42.53;;;12.10;10.20;;;;;;2610041;39;20818;-76
2022/03/25 07:27:47;;;;;;;56.73;42.20;;;12.50;10.40;;;;;;2607715;54;20454;-75
2022/03/25 07:30:14;;;;;;;59.20;43.57;;;12.40;8.90;;;;;;2608725;54;20408;-74
2022/03/25 07:32:40;;;;;;;61.83;43.70;;;12.50;8.20;;;;;;2627049;36;20459;-75
2022/03/25 07:35:08;;;;;;;65.63;45.43;;;12.50;8.00;;;;;;2607357;47;20419;-75
2022/03/25 07:37:34;;;;;;;56.60;43.57;;;12.90;6.40;;;;;;2608763;54;20469;-75
2022/03/25 07:40:00;;;;;;;59.40;42.93;;;13.20;4.40;;;;;;2608534;47;20431;-76
2022/03/25 07:42:25;;;;;;;57.07;41.13;;;13.50;2.90;;;;;;2627038;36;21184;-76
2022/03/25 07:44:51;;;;;;;58.93;42.53;;;13.90;1.30;;;;;;2602658;54;20703;-76
2022/03/25 07:47:17;;;;;;;55.33;42.57;;;14.10;1.00;;;;;;2605210;54;20172;-75
2022/03/25 07:49:43;;;;;;;64.00;43.20;;;14.40;1.00;;;;;;2609257;54;20198;-75
2022/03/25 07:52:14;;;;;;;51.40;43.00;;;14.50;1.00;;;;;;2602781;54;20412;-76
2022/03/25 07:54:40;;;;;;;53.60;43.13;;;14.70;1.00;;;;;;2606042;54;20154;-75
2022/03/25 07:57:06;;;;;;;54.67;41.13;;;14.60;1.00;;;;;;2606945;39;20909;-76
2022/03/25 07:59:32;;;;;;;54.83;42.20;;;14.80;1.00;;;;;;2609595;39;20540;-75
2022/03/25 08:01:57;;;;;;;56.93;41.97;;;15.00;1.00;;;;;;2608649;54;20411;-77
2022/03/25 08:04:24;;;;;;;51.43;41.43;;;15.30;1.00;;;;;;2610474;39;21076;-77
2022/03/25 08:06:54;;;;;;;55.13;41.73;;;15.50;1.00;;;;;;2610142;54;20165;-76
2022/03/25 08:09:20;;;;;;;53.30;42.77;;;15.60;1.00;;;;;;2610450;54;20440;-76
2022/03/25 08:11:47;;;;;;;53.70;42.47;;;16.10;1.00;;;;;;2607841;47;20419;-76
2022/03/25 08:14:17;;;;;;;57.10;42.50;;;16.10;1.00;;;;;;2611479;54;20394;-76
2022/03/25 08:16:44;;;;;;;56.80;42.67;;;16.00;1.00;;;;;;2610177;54;20497;-76
2022/03/25 08:19:11;;;;;;;55.00;42.60;;;16.00;1.00;;;;;;2610055;47;20412;-75
2022/03/25 08:21:37;;;;;;;52.60;42.90;;;16.20;1.00;;;;;;2610161;54;20415;-76
2022/03/25 08:29:32;;;;;;;49.83;41.93;;;16.80;1.00;;;;;;2610531;39;20867;-75
2022/03/25 08:31:58;;;;;;;51.43;42.93;;;16.70;1.00;;;;;;2609741;47;20429;-75
2022/03/25 08:34:24;;;;;;;50.53;42.10;;;16.90;1.00;;;;;;2611418;39;20556;-75
2022/03/25 08:36:50;;;;;;;57.13;43.00;;;17.10;1.00;;;;;;2611037;47;20175;-76
2022/03/25 08:39:17;;;;;;;49.20;40.67;;;17.50;1.00;;;;;;2609887;47;20168;-76
2022/03/25 08:41:44;;;;;;;53.40;42.83;;;17.60;1.00;;;;;;2609334;54;20430;-76
2022/03/25 08:44:10;;;;;;;50.90;42.43;;;17.50;1.00;;;;;;2609461;54;20429;-74
2022/03/25 08:46:36;;;;;;;51.93;43.43;;;17.80;1.00;;;;;;2608195;54;20423;-75
2022/03/25 08:49:03;;;;;;;51.73;39.20;;;18.20;1.00;;;;;;2609018;54;20403;-76
2022/03/25 08:51:29;;;;;;;46.97;39.27;;;18.20;1.00;;;;;;2608740;47;20868;-76
2022/03/25 08:53:56;;;;;;;47.10;40.60;;;18.30;1.00;;;;;;2611370;54;20431;-76
2022/03/25 08:56:24;;;;;;;46.90;40.53;;;18.20;1.00;;;;;;2611114;54;20421;-75
2022/03/25 08:58:54;;;;;;;51.27;39.23;;;18.40;1.00;;;;;;2611044;47;20413;-75
2022/03/25 09:01:22;;;;;;;44.20;38.40;;;18.60;1.00;;;;;;2609777;54;20426;-76
2022/03/25 09:03:49;;;;;;;51.10;40.13;;;18.90;1.00;;;;;;2609607;47;20430;-75
2022/03/25 09:06:15;;;;;;;50.03;41.83;;;19.10;1.00;;;;;;2610478;54;21078;-74
2022/03/25 09:08:41;;;;;;;49.87;39.70;;;19.20;1.00;;;;;;2609821;46;20503;-76
2022/03/25 09:11:08;;;;;;;46.60;39.47;;;19.40;1.00;;;;;;2610454;54;21095;-75
2022/03/25 09:13:35;;;;;;;48.47;37.20;;;19.50;1.00;;;;;;2611941;54;20643;-75
2022/03/25 09:16:01;;;;;;;53.03;39.60;;;19.60;1.00;;;;;;2609617;54;21073;-76
2022/03/25 09:18:26;;;;;;;49.23;37.00;;;19.80;1.00;;;;;;2611555;54;20525;-74
2022/03/25 09:20:52;;;;;;;44.97;36.63;;;19.50;1.00;;;;;;2611058;47;20170;-76
2022/03/25 09:23:18;;;;;;;46.27;36.23;;;19.80;1.00;;;;;;2611240;54;20154;-76
2022/03/25 09:25:44;;;;;;;45.20;37.83;;;20.00;1.00;;;;;;2609651;54;20175;-76
2022/03/25 09:28:10;;;;;;;47.27;38.80;;;20.00;1.00;;;;;;2611293;54;20423;-76
2022/03/25 09:30:36;;;;;;;49.80;38.10;;;20.20;1.00;;;;;;2610542;46;20446;-76
2022/03/25 09:33:03;;;;;;;39.57;35.30;;;20.40;1.00;;;;;;2610664;51;20738;-76
2022/03/25 09:35:29;;;;;;;49.00;38.63;;;20.30;1.00;;;;;;2611528;54;20407;-76
2022/03/25 09:37:55;;;;;;;41.53;36.90;;;20.50;1.00;;;;;;2610871;54;20503;-76
2022/03/25 09:40:26;;;;;;;43.30;37.00;;;20.20;1.00;;;;;;2611538;54;20291;-76
2022/03/25 09:42:55;;;;;;;39.80;33.23;;;20.30;1.00;;;;;;2609588;54;20174;-76
2022/03/25 09:45:22;;;;;;;35.80;31.87;;;20.40;1.00;;;;;;2611449;54;20399;-75
2022/03/25 09:47:49;;;;;;;38.97;33.07;;;20.40;1.00;;;;;;2611693;54;20439;-76
2022/03/25 09:50:17;;;;;;;38.10;34.03;;;20.40;1.00;;;;;;2611550;54;20391;-76
2022/03/25 09:52:44;;;;;;;42.83;34.73;;;20.80;1.00;;;;;;2610614;54;20437;-76
2022/03/25 09:55:11;;;;;;;34.50;30.80;;;21.10;1.00;;;;;;2610465;39;20481;-76
2022/03/25 09:57:38;;;;;;;29.37;26.40;;;21.10;1.00;;;;;;2608797;46;20465;-77
2022/03/25 10:00:06;;;;;;;33.57;30.10;;;21.10;1.00;;;;;;2610326;39;20925;-76
2022/03/25 10:02:38;;;;;;;34.80;31.40;;;21.30;1.00;;;;;;2610585;54;20533;-77
2022/03/25 10:05:20;;;;;;;38.00;32.17;;;21.60;1.00;;;;;;2612464;39;20767;-75
2022/03/25 10:07:51;;;;;;;39.80;30.43;;;21.10;1.00;;;;;;2612368;39;22217;-77
2022/03/25 10:10:26;;;;;;;34.87;29.13;;;21.20;1.00;;;;;;2610003;47;20447;-77
2022/03/25 10:13:00;;;;;;;35.97;26.13;;;21.40;1.00;;;;;;2610526;54;20415;-76
2022/03/25 10:15:28;;;;;;;29.80;25.63;;;21.60;1.00;;;;;;2611640;39;20736;-75
2022/03/25 10:17:57;;;;;;;33.70;27.23;;;21.70;1.00;;;;;;2609033;31;20890;-76
2022/03/25 10:20:28;;;;;;;36.57;28.20;;;21.70;1.00;;;;;;2610511;51;20415;-75
2022/03/25 10:23:03;;;;;;;28.50;24.97;;;21.60;1.00;;;;;;2611727;54;20415;-76
2022/03/25 10:25:45;;;;;;;32.07;26.40;;;21.70;1.00;;;;;;2610152;54;20445;-76
2022/03/25 10:28:40;;;;;;;29.83;26.47;;;21.70;1.00;;;;;;2609788;54;20426;-76
2022/03/25 10:31:12;;;;;;;32.90;27.73;;;22.00;1.00;;;;;;2615924;36;20711;-76
2022/03/25 10:33:47;;;;;;;32.93;27.77;;;22.00;1.00;;;;;;2627691;36;20474;-76
2022/03/25 10:36:19;;;;;;;29.60;26.67;;;21.80;1.00;;;;;;2611029;54;20431;-77
2022/03/25 10:38:48;;;;;;;31.40;28.10;;;21.70;1.00;;;;;;2609557;54;20451;-76
2022/03/25 10:41:20;;;;;;;34.17;28.70;;;21.50;1.00;;;;;;2610528;54;20983;-76
2022/03/25 10:43:59;;;;;;;36.50;30.70;;;21.30;1.00;;;;;;2610719;47;21228;-76
2022/03/25 10:46:30;;;;;;;33.77;28.90;;;21.40;1.00;;;;;;2609363;54;20411;-75
2022/03/25 10:48:56;;;;;;;34.80;27.20;;;21.60;1.00;;;;;;2611029;39;20808;-75
2022/03/25 10:51:22;;;;;;;34.30;28.63;;;21.80;1.00;;;;;;2611518;54;20407;-76
2022/03/25 10:53:56;;;;;;;32.87;27.77;;;21.70;1.00;;;;;;2611341;54;20423;-76
2022/03/25 10:56:22;;;;;;;33.37;29.33;;;22.20;1.00;;;;;;2612155;54;20428;-76
2022/03/25 10:58:56;;;;;;;30.40;27.20;;;22.30;1.00;;;;;;2611078;39;20832;-76
2022/03/25 11:01:22;;;;;;;30.57;27.53;;;22.20;1.00;;;;;;2611398;54;20407;-77
2022/03/25 11:03:50;;;;;;;36.17;29.57;;;22.00;1.00;;;;;;2611865;54;20412;-78
2022/03/25 11:06:19;;;;;;;32.50;29.00;;;21.90;1.00;;;;;;2612409;47;20454;-76
2022/03/25 11:08:48;;;;;;;32.90;28.23;;;21.80;1.00;;;;;;2612304;54;20439;-76
2022/03/25 11:11:17;;;;;;;32.20;28.40;;;21.70;1.00;;;;;;2611232;54;20411;-77
2022/03/25 11:13:45;;;;;;;33.50;28.93;;;21.90;1.00;;;;;;2611579;54;20976;-77
2022/03/25 11:16:15;;;;;;;36.27;29.87;;;21.70;1.00;;;;;;2610598;54;20471;-76
2022/03/25 11:18:43;;;;;;;34.97;29.33;;;21.90;1.00;;;;;;2610465;47;20867;-76
2022/03/25 11:21:09;;;;;;;45.13;31.50;;;22.10;1.00;;;;;;2612717;54;20431;-78
2022/03/25 11:23:52;;;;;;;33.50;29.90;;;21.90;1.00;;;;;;2611359;39;20823;-77
2022/03/25 11:26:26;;;;;;;35.73;29.50;;;21.80;1.00;;;;;;2610269;54;20445;-78
2022/03/25 11:28:58;;;;;;;31.30;28.10;;;22.00;1.00;;;;;;2612431;54;20415;-78
2022/03/25 11:31:26;;;;;;;37.93;31.23;;;22.30;1.00;;;;;;2612161;54;20928;-76
2022/03/25 11:34:11;;;;;;;34.13;29.83;;;22.50;1.00;;;;;;2612404;47;20515;-77
2022/03/25 11:36:41;;;;;;;32.07;28.40;;;22.60;1.00;;;;;;2611842;47;20450;-77
2022/03/25 11:39:24;;;;;;;32.70;29.13;;;22.80;1.00;;;;;;2611519;54;20538;-76
2022/03/25 11:41:53;;;;;;;35.70;30.67;;;22.50;1.00;;;;;;2611439;54;20391;-77
2022/03/25 11:44:25;;;;;;;36.07;30.93;;;22.60;1.00;;;;;;2610053;47;20427;-76
2022/03/25 11:47:00;;;;;;;34.40;30.70;;;22.60;1.00;;;;;;2612326;39;20830;-77
2022/03/25 11:49:31;;;;;;;35.00;29.40;;;22.30;1.00;;;;;;2613111;39;20815;-77
2022/03/25 11:52:28;;;;;;;37.40;26.83;;;22.50;1.00;;;;;;2612587;54;20440;-78
2022/03/25 11:54:58;;;;;;;40.37;28.87;;;22.40;1.00;;;;;;2612397;54;20415;-76
2022/03/25 11:57:34;;;;;;;35.77;29.13;;;21.60;1.00;;;;;;2611556;50;20458;-76
2022/03/25 12:00:11;;;;;;;27.97;23.50;;;21.20;1.00;;;;;;2611159;54;20411;-78
2022/03/25 12:02:42;;;;;;;28.40;25.40;;;21.30;1.00;;;;;;2612210;47;20993;-77
2022/03/25 12:05:26;;;;;;;28.83;25.80;;;21.60;1.00;;;;;;2611943;54;20430;-78
2022/03/25 12:08:31;;;;;;;29.90;26.90;;;21.60;1.00;;;;;;2613697;54;20964;-80
2022/03/25 12:11:02;;;;;;;29.40;26.40;;;21.70;1.00;;;;;;2609239;47;20442;-77
2022/03/25 12:13:55;;;;;;;44.80;28.67;;;21.70;1.00;;;;;;2611834;39;20793;-77
2022/03/25 12:16:49;;;;;;;34.20;23.20;;;21.50;1.00;;;;;;2613570;54;20418;-76
2022/03/25 12:19:28;;;;;;;28.03;24.70;;;21.10;1.00;;;;;;2613276;54;20439;-75
2022/03/25 12:21:54;;;;;;;30.93;27.77;;;20.70;1.00;;;;;;2610260;54;20433;-77
2022/03/25 12:24:21;;;;;;;29.87;26.67;;;20.90;1.00;;;;;;2609225;54;20971;-77
2022/03/25 12:26:55;;;;;;;29.10;26.00;;;21.20;1.00;;;;;;2610441;54;20466;-76
2022/03/25 12:29:31;;;;;;;33.10;26.80;;;21.00;1.00;;;;;;2610535;39;20846;-76
2022/03/25 12:32:02;;;;;;;26.97;24.20;;;21.10;1.00;;;;;;2610798;54;20422;-76
2022/03/25 12:34:51;;;;;;;30.07;26.97;;;21.10;1.00;;;;;;2611079;54;20519;-76
2022/03/25 12:37:46;;;;;;;28.67;25.70;;;21.80;1.00;;;;;;2611076;54;20431;-76
2022/03/25 12:40:20;;;;;;;30.13;26.30;;;22.20;1.00;;;;;;2611227;39;20796;-78
2022/03/25 12:42:57;;;;;;;35.23;27.00;;;22.00;1.00;;;;;;2609875;54;20473;-78
2022/03/25 12:45:38;;;;;;;31.90;27.73;;;22.00;1.00;;;;;;2610792;39;20852;-77
2022/03/25 12:48:11;;;;;;;30.40;26.90;;;21.80;1.00;;;;;;2611761;47;20447;-78